Airport Name : Fairfield Travis AFB

Other Name : Travis AFB

ICAO : KSUU

IATA : SUU

FAA : SUU

Latitude : 38.262692

Longitude : -121.927464

Country : United States

Local Date and Time : 29 May 2024 23:09

 

TAF (Terminal Aerodrome Forecast)

TAF KSUU 300300Z 3003/3109 25010KT 9999 SKC QNH2996INS BECMG 3009/3010 25010G18KT 9999 SKC QNH2994INS BECMG 3016/3017 25009KT 9999 SKC QNH2997INS TX31/3023Z TN14/3013Z

 

METAR (METeorological Aerodrome Report)

KSUU 300555Z AUTO 23007KT 10SM CLR 16/08 A2996 RMK AO2 SLP151 T01600077 10319 20160 50000

KSUU 300455Z AUTO 24007KT 10SM CLR 18/08 A2996 RMK AO2 SLP151 T01840078

KSUU 300355Z AUTO 25007KT 10SM CLR 21/08 A2996 RMK AO2 SLP151 T02090082

KSUU 300255Z AUTO 24010KT 10SM CLR 25/08 A2996 RMK AO2 SLP151 T02480083 56007